Time;durP1;ratioP1;P1;durP2;ratioP2;P2;SDS_P1;SDS_P2;PMS_P1;PMS_P2;Temp;Humidity;BMP_temperature;BMP_pressure;BME280_temperature;BME280_humidity;BME280_pressure;Samples;Min_cycle;Max_cycle;Signal;HPM_P1;HPM_P2
2022/08/08 00:02:27;;;;;;;1.10;1.00;;;;;;;15.92;67.77;96610.00;5086739;28;20020;-74
2022/08/08 00:05:09;;;;;;;1.80;1.10;;;;;;;16.08;67.20;96606.31;5085467;28;20131;-74
2022/08/08 00:07:55;;;;;;;2.00;1.00;;;;;;;16.00;68.04;96600.13;5083163;28;20032;-74
2022/08/08 00:10:32;;;;;;;1.80;0.90;;;;;;;15.98;68.55;96596.00;5075888;28;20059;-74
2022/08/08 00:13:03;;;;;;;1.53;0.97;;;;;;;15.74;70.57;96608.53;5081790;28;20029;-74
2022/08/08 00:15:35;;;;;;;1.70;1.07;;;;;;;15.76;70.72;96603.88;5087112;28;20028;-74
2022/08/08 00:18:07;;;;;;;2.63;1.40;;;;;;;15.82;71.15;96612.09;5087023;28;20060;-74
2022/08/08 00:20:50;;;;;;;2.10;0.80;;;;;;;15.68;72.30;96616.38;5085126;28;20102;-74
2022/08/08 00:23:25;;;;;;;2.83;0.95;;;;;;;15.56;73.21;96603.56;5080040;28;20123;-74
2022/08/08 00:25:55;;;;;;;1.47;0.87;;;;;;;15.41;74.60;96608.00;5078618;28;20118;-75
2022/08/08 00:28:29;;;;;;;4.03;1.00;;;;;;;15.42;74.75;96606.16;5066880;28;20032;-74
2022/08/08 00:30:59;;;;;;;2.30;1.07;;;;;;;15.36;75.87;96612.19;5083206;28;20066;-74
2022/08/08 00:33:30;;;;;;;3.23;1.20;;;;;;;15.30;77.30;96608.44;5083410;28;20035;-74
2022/08/08 00:36:14;;;;;;;2.60;1.13;;;;;;;15.24;77.95;96614.47;5086015;28;20035;-74
2022/08/08 00:39:09;;;;;;;3.83;1.33;;;;;;;15.20;80.45;96608.69;5086267;28;20032;-74
2022/08/08 00:42:02;;;;;;;1.97;1.00;;;;;;;15.21;82.04;96605.03;5080639;28;20120;-74
2022/08/08 00:44:55;;;;;;;3.35;1.30;;;;;;;15.22;83.58;96606.66;5079419;28;20020;-75
2022/08/08 00:47:55;;;;;;;1.83;1.38;;;;;;;15.16;84.85;96596.81;5079525;28;20055;-75
2022/08/08 00:51:09;;;;;;;2.77;1.30;;;;;;;15.07;86.37;96611.13;5086694;28;20059;-75
2022/08/08 00:53:50;;;;;;;;;;;;;;;15.05;86.85;96613.94;5069080;28;20580;-75
2022/08/08 00:56:34;;;;;;;2.80;1.13;;;;;;;14.88;88.38;96612.41;5070028;28;19985;-74
2022/08/08 00:59:18;;;;;;;5.20;1.40;;;;;;;14.97;89.08;96608.72;5081900;28;20084;-75
2022/08/08 01:02:12;;;;;;;2.70;1.30;;;;;;;14.75;89.03;96613.00;5066396;28;20039;-75
2022/08/08 01:05:16;;;;;;;2.23;1.40;;;;;;;14.79;89.17;96614.31;5079826;28;20139;-74
2022/08/08 01:08:19;;;;;;;2.95;1.40;;;;;;;14.61;90.12;96614.56;5081625;28;20040;-73
2022/08/08 01:11:03;;;;;;;4.10;1.35;;;;;;;14.57;89.37;96615.09;5081686;28;20104;-73
2022/08/08 01:14:04;;;;;;;2.27;1.30;;;;;;;14.54;89.00;96610.97;5078284;28;20038;-74
2022/08/08 01:16:44;;;;;;;1.63;1.07;;;;;;;14.64;89.51;96616.06;5080843;28;20036;-73
2022/08/08 01:19:27;;;;;;;7.43;2.30;;;;;;;14.51;90.48;96613.97;5097334;28;20020;-74
2022/08/08 01:22:20;;;;;;;2.50;1.40;;;;;;;14.43;90.60;96613.19;5082397;28;20035;-74
2022/08/08 01:25:36;;;;;;;2.33;1.33;;;;;;;14.43;91.75;96618.47;5086272;28;20046;-74
2022/08/08 01:28:05;;;;;;;3.40;1.37;;;;;;;14.40;92.86;96614.34;5056171;28;20120;-74
2022/08/08 01:31:04;;;;;;;4.47;1.30;;;;;;;14.46;92.98;96621.59;5084087;28;20377;-74
2022/08/08 01:33:33;;;;;;;2.07;1.23;;;;;;;14.59;91.37;96615.78;5085836;28;20077;-74
2022/08/08 01:36:21;;;;;;;2.77;1.70;;;;;;;14.50;91.80;96627.38;5071498;28;20032;-75
2022/08/08 01:39:01;;;;;;;3.77;1.43;;;;;;;14.31;93.75;96626.78;5064754;28;20039;-74
2022/08/08 01:41:29;;;;;;;4.67;1.40;;;;;;;14.20;94.35;96626.34;5086436;28;20597;-75
2022/08/08 01:44:29;;;;;;;3.67;1.43;;;;;;;14.15;95.39;96629.50;5087910;28;20045;-74
2022/08/08 01:47:24;;;;;;;2.17;1.37;;;;;;;14.05;97.05;96619.16;5088571;28;20036;-74
2022/08/08 01:50:08;;;;;;;4.93;2.00;;;;;;;14.06;97.85;96623.44;5088092;28;20040;-75
2022/08/08 01:52:51;;;;;;;5.47;1.63;;;;;;;14.09;98.44;96624.91;5071664;28;20028;-74
2022/08/08 01:55:45;;;;;;;4.47;1.40;;;;;;;14.02;99.17;96618.66;5071836;28;20032;-74
2022/08/08 01:58:49;;;;;;;1.80;1.42;;;;;;;14.05;99.92;96619.16;5087393;28;20043;-74
2022/08/08 02:01:43;;;;;;;3.13;1.40;;;;;;;14.03;100.00;96623.78;5089567;28;20034;-74
2022/08/08 02:04:33;;;;;;;2.60;1.50;;;;;;;13.99;100.00;96621.66;5074235;28;20024;-75
2022/08/08 02:07:06;;;;;;;4.13;1.63;;;;;;;13.87;100.00;96626.47;5089741;28;20131;-75
2022/08/08 02:10:06;;;;;;;2.27;1.57;;;;;;;13.90;100.00;96626.94;5090562;28;20036;-74
2022/08/08 02:12:50;;;;;;;3.23;1.50;;;;;;;13.95;100.00;96628.25;5086444;28;20509;-74
2022/08/08 02:15:42;;;;;;;3.30;1.57;;;;;;;13.99;100.00;96627.75;5090876;28;20032;-74
2022/08/08 02:18:18;;;;;;;4.17;1.53;;;;;;;13.81;100.00;96627.16;5090126;28;20043;-74
2022/08/08 02:24:01;;;;;;;4.73;2.00;;;;;;;13.73;100.00;96628.00;5087665;28;20042;-74
2022/08/08 02:26:37;;;;;;;2.83;1.77;;;;;;;13.62;100.00;96618.63;5085206;28;20032;-75
2022/08/08 02:29:04;;;;;;;4.43;2.00;;;;;;;13.48;100.00;96621.09;5090866;28;20126;-74
2022/08/08 02:32:07;;;;;;;2.93;1.50;;;;;;;13.35;100.00;96616.34;5090441;28;20110;-75
2022/08/08 02:35:02;;;;;;;2.83;1.63;;;;;;;13.14;100.00;96624.75;5078456;28;20067;-74
2022/08/08 02:38:25;;;;;;;4.07;1.77;;;;;;;13.31;100.00;96605.31;5073754;28;20095;-75
2022/08/08 02:41:05;;;;;;;2.23;1.57;;;;;;;13.26;100.00;96607.59;5051039;28;20487;-74
2022/08/08 02:43:34;;;;;;;4.03;1.83;;;;;;;13.20;100.00;96614.34;5078980;28;20036;-74
2022/08/08 02:46:34;;;;;;;2.87;1.70;;;;;;;13.20;100.00;96621.44;5087873;28;20081;-74
2022/08/08 02:49:19;;;;;;;4.33;1.80;;;;;;;13.35;100.00;96611.91;5088357;28;20024;-74
2022/08/08 02:52:06;;;;;;;3.67;1.90;;;;;;;13.30;100.00;96618.66;5085166;28;20031;-74
2022/08/08 02:55:00;;;;;;;4.03;1.93;;;;;;;13.11;100.00;96625.06;5113147;28;20046;-74
2022/08/08 02:58:00;;;;;;;2.78;1.73;;;;;;;13.20;100.00;96618.81;5068660;28;20108;-75
2022/08/08 03:01:00;;;;;;;4.67;2.20;;;;;;;13.01;100.00;96627.91;5084256;28;20027;-74
2022/08/08 03:04:01;;;;;;;3.67;2.00;;;;;;;12.92;100.00;96629.69;5065789;28;20052;-75
2022/08/08 03:06:39;;;;;;;2.63;1.83;;;;;;;12.92;100.00;96627.06;5085899;28;20047;-74
2022/08/08 03:09:43;;;;;;;2.40;1.50;;;;;;;12.98;100.00;96623.75;5086947;28;20039;-75
2022/08/08 03:12:33;;;;;;;5.20;2.50;;;;;;;12.74;100.00;96631.63;5086453;28;20404;-75
2022/08/08 03:15:24;;;;;;;3.93;1.87;;;;;;;12.76;100.00;96634.13;5084753;28;20039;-75
2022/08/08 03:18:01;;;;;;;3.20;2.17;;;;;;;12.91;100.00;96641.25;5087793;28;20035;-75
2022/08/08 03:20:48;;;;;;;4.20;1.70;;;;;;;12.81;100.00;96635.31;5065727;28;20382;-75
2022/08/08 03:23:22;;;;;;;3.23;1.90;;;;;;;12.79;100.00;96641.72;5085526;28;20101;-74
2022/08/08 03:25:49;;;;;;;7.13;2.10;;;;;;;12.91;100.00;96649.16;5084373;28;20855;-75
2022/08/08 03:28:20;;;;;;;7.33;1.97;;;;;;;13.02;100.00;96644.56;5086260;28;20056;-74
2022/08/08 03:30:48;;;;;;;4.40;1.88;;;;;;;13.10;100.00;96639.28;5086325;28;20047;-74
2022/08/08 03:33:17;;;;;;;4.37;1.97;;;;;;;13.13;100.00;96644.22;5075610;28;20074;-74
2022/08/08 03:35:49;;;;;;;3.97;1.80;;;;;;;13.09;100.00;96642.91;5086852;28;20031;-74
2022/08/08 03:38:20;;;;;;;5.17;2.03;;;;;;;13.15;100.00;96647.53;5085651;28;20668;-74
2022/08/08 03:40:51;;;;;;;3.67;1.63;;;;;;;13.12;100.00;96661.06;5075732;28;20512;-74
2022/08/08 03:43:17;;;;;;;2.53;1.70;;;;;;;13.14;100.00;96656.44;5080798;28;20103;-74
2022/08/08 03:45:44;;;;;;;9.37;2.07;;;;;;;13.20;100.00;96653.13;5082385;28;20184;-74
2022/08/08 03:48:12;;;;;;;3.70;1.70;;;;;;;13.27;100.00;96651.50;5088155;28;20070;-74
2022/08/08 03:50:49;;;;;;;2.53;1.90;;;;;;;13.31;100.00;96655.50;5086543;28;20418;-74
2022/08/08 03:53:20;;;;;;;4.27;1.90;;;;;;;13.22;100.00;96656.44;5084819;28;20042;-75
2022/08/08 03:55:49;;;;;;;4.57;2.20;;;;;;;13.25;100.00;96668.53;5085067;28;20534;-74
2022/08/08 03:58:19;;;;;;;4.10;2.00;;;;;;;13.01;100.00;96669.28;5080298;28;20130;-74
2022/08/08 04:00:51;;;;;;;4.30;1.60;;;;;;;12.88;100.00;96670.63;5085106;28;20401;-75
2022/08/08 04:03:17;;;;;;;5.13;1.50;;;;;;;12.95;100.00;96670.78;5083388;28;20040;-74
2022/08/08 04:05:43;;;;;;;2.40;1.60;;;;;;;12.89;100.00;96668.78;5087063;28;20124;-74
2022/08/08 04:08:22;;;;;;;3.63;1.83;;;;;;;12.76;100.00;96674.53;5085432;28;20226;-74
2022/08/08 04:10:51;;;;;;;3.63;1.80;;;;;;;12.75;100.00;96667.63;5069385;28;20077;-74
2022/08/08 04:13:19;;;;;;;4.20;1.97;;;;;;;12.76;100.00;96679.81;5065658;28;20554;-74
2022/08/08 04:15:53;;;;;;;5.23;2.00;;;;;;;12.70;100.00;96672.53;5085790;28;20093;-74
2022/08/08 04:18:19;;;;;;;4.47;2.17;;;;;;;12.63;100.00;96675.00;5086532;28;20028;-75
2022/08/08 04:20:45;;;;;;;4.90;1.97;;;;;;;12.76;100.00;96679.81;5077592;28;20115;-74
2022/08/08 04:23:11;;;;;;;2.80;1.77;;;;;;;12.76;100.00;96685.09;5078839;28;20046;-74
2022/08/08 04:25:37;;;;;;;2.07;1.50;;;;;;;12.88;100.00;96677.72;5085597;28;20028;-74
2022/08/08 04:28:03;;;;;;;3.33;1.90;;;;;;;12.92;100.00;96679.84;5084866;28;20159;-74
2022/08/08 04:30:29;;;;;;;4.07;1.60;;;;;;;12.84;100.00;96687.75;5083337;28;20128;-74
2022/08/08 04:32:55;;;;;;;4.07;2.10;;;;;;;12.84;100.00;96686.91;5084732;28;20024;-74
2022/08/08 04:35:26;;;;;;;3.47;1.93;;;;;;;12.82;100.00;96695.00;5080576;28;20385;-74
2022/08/08 04:37:53;;;;;;;6.33;2.33;;;;;;;12.79;100.00;96692.69;5084639;28;20036;-74
2022/08/08 04:40:22;;;;;;;4.97;2.13;;;;;;;12.76;100.00;96695.66;5080035;28;20482;-74
2022/08/08 04:42:51;;;;;;;5.03;2.00;;;;;;;12.60;100.00;96703.53;5061629;28;20456;-74
2022/08/08 04:45:17;;;;;;;4.70;2.47;;;;;;;12.63;100.00;96711.13;5084661;28;20023;-75
2022/08/08 04:47:43;;;;;;;4.73;3.30;;;;;;;12.68;100.00;96711.47;5088251;28;20089;-74
2022/08/08 04:50:09;;;;;;;5.50;2.70;;;;;;;12.66;100.00;96700.25;5085496;28;20033;-74
2022/08/08 04:52:36;;;;;;;4.80;2.50;;;;;;;12.85;100.00;96709.72;5085731;28;20550;-74
2022/08/08 04:55:09;;;;;;;5.18;2.60;;;;;;;12.85;100.00;96709.72;5068331;28;20071;-74
2022/08/08 04:57:34;;;;;;;6.03;2.50;;;;;;;12.76;100.00;96710.66;5080334;28;20066;-75
2022/08/08 05:00:04;;;;;;;4.67;2.83;;;;;;;12.94;100.00;96714.84;5065122;28;20299;-74
2022/08/08 05:02:30;;;;;;;6.00;2.53;;;;;;;13.47;100.00;96711.94;5064526;28;20082;-76
2022/08/08 05:04:56;;;;;;;4.53;2.67;;;;;;;13.61;100.00;96720.00;5086294;28;20032;-74
2022/08/08 05:07:22;;;;;;;4.57;2.17;;;;;;;13.59;100.00;96713.25;5085309;28;20028;-74
2022/08/08 05:09:48;;;;;;;7.50;3.60;;;;;;;13.40;100.00;96719.69;5081426;28;20036;-75
2022/08/08 05:12:13;;;;;;;5.80;3.20;;;;;;;13.44;100.00;96707.81;5085818;28;20035;-75
2022/08/08 05:14:39;;;;;;;4.63;2.77;;;;;;;13.51;100.00;96715.88;5083815;28;20075;-75
2022/08/08 05:17:07;;;;;;;7.17;2.83;;;;;;;13.70;100.00;96712.91;5082368;28;20028;-75
2022/08/08 05:19:34;;;;;;;4.70;2.70;;;;;;;14.06;100.00;96710.72;5070575;28;20457;-75
2022/08/08 05:22:01;;;;;;;4.70;2.70;;;;;;;14.14;100.00;96708.03;5089580;28;20462;-74
2022/08/08 05:24:30;;;;;;;4.27;2.30;;;;;;;14.45;100.00;96703.78;5087318;28;20108;-75
2022/08/08 05:26:57;;;;;;;3.90;2.37;;;;;;;14.84;100.00;96709.09;5084646;28;20476;-74
2022/08/08 05:29:23;;;;;;;3.37;2.47;;;;;;;15.07;100.00;96714.44;5088609;28;20056;-74
2022/08/08 05:31:49;;;;;;;6.20;2.47;;;;;;;14.90;100.00;96707.59;5089003;28;20105;-75
2022/08/08 05:34:29;;;;;;;4.77;2.40;;;;;;;15.12;100.00;96713.88;5088861;28;20484;-75
2022/08/08 05:36:55;;;;;;;5.17;2.23;;;;;;;15.32;100.00;96709.75;5088754;28;20063;-75
2022/08/08 05:39:23;;;;;;;2.93;2.10;;;;;;;15.30;100.00;96709.97;5089680;28;20020;-75
2022/08/08 05:41:51;;;;;;;8.23;4.87;;;;;;;15.29;100.00;96713.63;5083734;28;20389;-75
2022/08/08 05:44:31;;;;;;;7.30;4.70;;;;;;;15.46;100.00;96716.13;5064856;28;20032;-75
2022/08/08 05:46:58;;;;;;;2.67;2.20;;;;;;;15.38;100.00;96718.84;5085872;28;20036;-74
2022/08/08 05:49:25;;;;;;;4.43;2.77;;;;;;;15.96;98.77;96720.00;5085802;28;20024;-75
2022/08/08 05:51:51;;;;;;;4.87;2.43;;;;;;;16.24;97.61;96723.72;5088148;28;20086;-75
2022/08/08 05:54:22;;;;;;;7.23;2.67;;;;;;;16.54;93.46;96718.41;5086854;28;20168;-74
2022/08/08 05:56:52;;;;;;;4.83;2.23;;;;;;;16.68;91.88;96725.50;5087790;28;20089;-75
2022/08/08 05:59:23;;;;;;;4.03;2.15;;;;;;;17.22;90.14;96713.69;5086792;28;20027;-75
2022/08/08 06:01:55;;;;;;;3.90;2.40;;;;;;;17.87;85.78;96714.47;5088607;28;20032;-75
2022/08/08 06:04:24;;;;;;;2.33;1.37;;;;;;;17.84;87.10;96723.69;5080115;28;20036;-75
2022/08/08 06:06:58;;;;;;;3.20;1.77;;;;;;;17.87;84.28;96720.66;5088155;28;20036;-75
2022/08/08 06:09:33;;;;;;;4.80;1.97;;;;;;;18.17;82.79;96719.59;5087164;28;20032;-74
2022/08/08 06:12:03;;;;;;;6.50;1.70;;;;;;;18.48;80.49;96717.34;5086915;28;20028;-75
2022/08/08 06:14:30;;;;;;;2.13;1.90;;;;;;;18.32;80.85;96718.50;5070516;28;20133;-74
2022/08/08 06:17:00;;;;;;;2.95;1.60;;;;;;;19.04;76.99;96716.38;5087173;28;20496;-75
2022/08/08 06:19:49;;;;;;;4.25;1.92;;;;;;;18.84;78.68;96716.28;5074320;28;20066;-75
2022/08/08 06:22:15;;;;;;;3.97;1.80;;;;;;;19.13;78.11;96722.34;5083205;28;20056;-75
2022/08/08 06:24:45;;;;;;;3.13;1.98;;;;;;;19.61;74.66;96722.22;5089340;28;20525;-75
2022/08/08 06:27:13;;;;;;;2.42;1.67;;;;;;;19.91;71.74;96723.47;5088055;28;20036;-75
2022/08/08 06:29:54;;;;;;;3.35;1.60;;;;;;;20.11;71.98;96722.66;5085340;28;20121;-75
2022/08/08 06:32:27;;;;;;;3.83;1.80;;;;;;;20.06;71.50;96725.97;5087945;28;20053;-75
2022/08/08 06:34:53;;;;;;;;;;;;;;;20.72;66.34;96730.34;5088820;28;20036;-74
2022/08/08 06:37:26;;;;;;;3.72;1.80;;;;;;;20.67;67.77;96728.31;5086995;28;19912;-75
2022/08/08 06:40:04;;;;;;;4.30;1.98;;;;;;;20.72;67.57;96725.00;5082676;28;20031;-75
2022/08/08 06:42:36;;;;;;;3.88;2.00;;;;;;;20.72;67.39;96733.00;5081465;28;20063;-74
2022/08/08 06:45:05;;;;;;;4.32;2.20;;;;;;;21.08;65.37;96734.31;5069541;28;20063;-74
2022/08/08 06:47:33;;;;;;;3.20;1.80;;;;;;;21.35;65.50;96735.03;5064785;28;20040;-75
2022/08/08 06:50:00;;;;;;;2.92;1.65;;;;;;;21.72;61.76;96729.84;5083709;28;20028;-75
2022/08/08 06:52:26;;;;;;;5.85;1.92;;;;;;;22.59;58.98;96728.03;5087045;28;20028;-75
2022/08/08 06:54:54;;;;;;;3.10;1.90;;;;;;;22.31;59.86;96734.72;5086846;28;20027;-75
2022/08/08 06:57:23;;;;;;;3.90;2.00;;;;;;;23.05;57.38;96732.06;5083762;28;20031;-75
2022/08/08 06:59:50;;;;;;;2.85;1.60;;;;;;;23.00;57.19;96726.56;5084729;28;20016;-74
2022/08/08 07:02:23;;;;;;;38.42;30.50;;;;;;;23.88;53.56;96733.19;5086677;28;20416;-75
2022/08/08 07:05:05;;;;;;;2.85;2.00;;;;;;;22.70;57.73;96737.19;5088503;28;20039;-77
2022/08/08 07:08:16;;;;;;;7.28;3.20;;;;;;;22.74;58.21;96733.84;5082855;28;20028;-75
2022/08/08 07:10:55;;;;;;;8.63;5.05;;;;;;;23.24;56.52;96738.22;5075661;28;20043;-75
2022/08/08 07:13:27;;;;;;;2.83;1.90;;;;;;;23.91;52.64;96732.72;5074683;28;20067;-76
2022/08/08 07:15:56;;;;;;;5.20;2.30;;;;;;;24.33;51.91;96738.00;5085176;28;20122;-75
2022/08/08 07:18:46;;;;;;;5.72;2.53;;;;;;;24.72;49.80;96728.41;5070443;28;20454;-75
2022/08/08 07:21:17;;;;;;;3.88;1.88;;;;;;;24.72;49.61;96738.38;5085807;28;20054;-76
2022/08/08 07:24:31;;;;;;;2.78;1.95;;;;;;;24.80;49.39;96735.28;5084239;28;20043;-75
2022/08/08 07:27:04;;;;;;;5.75;2.42;;;;;;;24.51;50.81;96745.16;5073905;28;20036;-75
2022/08/08 07:29:31;;;;;;;3.63;1.80;;;;;;;25.51;47.00;96741.28;5085996;28;20063;-75
2022/08/08 07:31:57;;;;;;;5.68;2.63;;;;;;;25.84;45.83;96740.53;5085950;28;20047;-75
2022/08/08 07:34:24;;;;;;;4.65;2.17;;;;;;;25.61;46.48;96736.88;5071119;28;20039;-75
2022/08/08 07:36:52;;;;;;;3.97;2.50;;;;;;;26.06;44.90;96744.16;5089304;28;20036;-76
2022/08/08 07:39:22;;;;;;;4.53;1.90;;;;;;;26.15;44.01;96741.84;5099090;28;20023;-74
2022/08/08 07:41:49;;;;;;;3.80;2.22;;;;;;;26.04;44.09;96737.38;5098672;28;20102;-74
2022/08/08 07:44:19;;;;;;;3.75;2.13;;;;;;;26.38;43.76;96746.25;5074254;28;20032;-75
2022/08/08 07:46:45;;;;;;;4.75;2.70;;;;;;;25.47;45.62;96749.03;5086327;28;21583;-75
2022/08/08 07:49:14;;;;;;;4.80;2.40;;;;;;;25.72;45.24;96747.84;5075590;28;20028;-75
2022/08/08 07:51:42;;;;;;;5.75;2.58;;;;;;;26.29;44.30;96742.31;5091668;28;20066;-75
2022/08/08 07:54:53;;;;;;;13.73;9.23;;;;;;;26.06;44.20;96751.44;5086979;28;20442;-76
2022/08/08 07:57:45;;;;;;;22.05;14.52;;;;;;;27.03;41.94;96748.25;5071956;28;20032;-76
2022/08/08 08:00:13;;;;;;;4.25;2.88;;;;;;;27.09;41.31;96751.00;5061169;28;20032;-79
2022/08/08 08:03:17;;;;;;;2.95;1.83;;;;;;;27.36;41.73;96746.47;5070570;28;20426;-77
2022/08/08 08:05:44;;;;;;;3.35;1.75;;;;;;;27.13;41.60;96752.16;5082307;28;20036;-76
2022/08/08 08:08:26;;;;;;;4.32;1.98;;;;;;;28.05;39.85;96751.22;5064069;28;20119;-76
2022/08/08 08:10:56;;;;;;;2.88;1.90;;;;;;;26.80;41.05;96753.88;5081794;28;20078;-74
2022/08/08 08:13:40;;;;;;;3.25;1.92;;;;;;;26.34;41.99;96761.28;5082754;28;20039;-76
2022/08/08 08:16:14;;;;;;;2.85;1.80;;;;;;;27.92;39.45;96755.16;5085435;28;20051;-75
2022/08/08 08:18:46;;;;;;;3.50;1.92;;;;;;;27.73;40.04;96752.00;5079314;28;20371;-76
2022/08/08 08:21:15;;;;;;;3.47;1.60;;;;;;;27.98;38.72;96753.31;5082517;28;20039;-74
2022/08/08 08:23:41;;;;;;;2.85;1.55;;;;;;;28.63;37.33;96757.59;5086409;28;20344;-75
2022/08/08 08:26:11;;;;;;;2.40;1.60;;;;;;;28.93;37.63;96747.22;5069130;28;21919;-75
2022/08/08 08:28:37;;;;;;;2.97;1.67;;;;;;;28.92;35.60;96749.09;5072826;28;20643;-75
2022/08/08 08:31:04;;;;;;;4.80;1.90;;;;;;;29.16;35.61;96757.63;5084964;28;20088;-75
2022/08/08 08:33:33;;;;;;;3.05;1.48;;;;;;;28.19;37.66;96752.41;5076793;28;20555;-75
2022/08/08 08:36:01;;;;;;;4.97;1.83;;;;;;;29.16;35.35;96751.41;5078844;28;20343;-75
2022/08/08 08:38:30;;;;;;;1.98;1.35;;;;;;;28.60;36.05;96749.19;5068880;28;20012;-75
2022/08/08 08:41:01;;;;;;;2.10;1.42;;;;;;;28.20;36.95;96759.47;5085019;28;20401;-75
2022/08/08 08:43:30;;;;;;;2.58;1.65;;;;;;;29.50;34.95;96754.47;5080845;28;20047;-76
2022/08/08 08:45:59;;;;;;;1.95;1.38;;;;;;;29.32;34.07;96753.09;5093295;28;20058;-75
2022/08/08 08:48:26;;;;;;;3.05;1.40;;;;;;;29.12;33.26;96751.94;5077194;28;20032;-75
2022/08/08 08:50:54;;;;;;;2.67;1.88;;;;;;;29.15;33.74;96750.59;5064149;28;20039;-76
2022/08/08 08:53:21;;;;;;;4.40;1.45;;;;;;;28.55;34.66;96762.72;5068015;28;20028;-75
2022/08/08 08:55:48;;;;;;;2.08;1.40;;;;;;;28.71;31.87;96753.59;5069292;28;20085;-75
2022/08/08 08:58:34;;;;;;;2.90;1.30;;;;;;;28.67;32.83;96755.19;5061193;28;20036;-75
2022/08/08 09:01:03;;;;;;;2.42;1.35;;;;;;;28.54;32.85;96761.06;5082893;28;20028;-75
2022/08/08 09:03:30;;;;;;;2.60;1.52;;;;;;;28.92;32.40;96761.84;5085550;28;20032;-75
2022/08/08 09:05:57;;;;;;;1.95;1.27;;;;;;;29.94;30.87;96762.16;5083308;28;20040;-75
2022/08/08 09:08:27;;;;;;;2.70;1.30;;;;;;;28.78;30.87;96765.00;5063322;28;20047;-75
2022/08/08 09:10:55;;;;;;;2.15;1.00;;;;;;;29.42;30.88;96761.25;5082541;28;20036;-75
2022/08/08 09:13:22;;;;;;;2.35;1.20;;;;;;;28.89;31.51;96777.50;5085669;28;20051;-75
2022/08/08 09:15:48;;;;;;;2.95;1.10;;;;;;;29.00;27.79;96770.28;5084434;28;20749;-75
2022/08/08 09:18:16;;;;;;;2.40;1.20;;;;;;;29.01;28.78;96761.09;5076914;28;20040;-75
2022/08/08 09:20:45;;;;;;;2.70;1.45;;;;;;;29.18;30.34;96771.72;5084480;28;20061;-75
2022/08/08 09:23:15;;;;;;;2.03;1.20;;;;;;;29.95;29.12;96771.94;5081927;28;20040;-76
2022/08/08 09:25:50;;;;;;;3.08;1.38;;;;;;;30.84;28.00;96765.13;5084181;28;20050;-76
2022/08/08 09:28:17;;;;;;;6.65;1.70;;;;;;;29.67;29.36;96763.22;5068740;28;20032;-75
2022/08/08 09:30:46;;;;;;;3.15;1.20;;;;;;;30.12;27.91;96772.50;5056749;28;20094;-75
2022/08/08 09:33:16;;;;;;;2.60;1.25;;;;;;;29.59;27.90;96769.13;5080046;28;20473;-75
2022/08/08 09:35:45;;;;;;;1.95;1.10;;;;;;;30.06;26.55;96768.94;5073111;28;20130;-75
2022/08/08 09:38:22;;;;;;;2.38;0.90;;;;;;;30.21;26.61;96770.88;5084101;28;20051;-75
2022/08/08 09:40:54;;;;;;;4.25;1.30;;;;;;;29.50;27.65;96763.41;5061371;28;20028;-75
2022/08/08 09:43:30;;;;;;;2.80;0.88;;;;;;;29.40;27.97;96762.59;5084958;28;20024;-76
2022/08/08 09:46:01;;;;;;;1.48;1.00;;;;;;;29.74;27.27;96768.38;5075260;28;20039;-76
2022/08/08 09:48:33;;;;;;;3.60;1.30;;;;;;;30.87;25.86;96766.47;5086291;28;20040;-76
2022/08/08 09:51:01;;;;;;;1.38;0.93;;;;;;;30.32;25.85;96762.75;5082414;28;20929;-76
2022/08/08 09:53:36;;;;;;;0.85;0.75;;;;;;;30.88;25.76;96765.38;5090652;28;20036;-76
2022/08/08 09:56:03;;;;;;;4.85;1.20;;;;;;;31.08;26.16;96746.28;5088470;28;20036;-76
2022/08/08 09:58:37;;;;;;;3.92;1.75;;;;;;;30.74;25.88;96752.34;5088381;28;20165;-76
2022/08/08 10:01:06;;;;;;;3.53;1.20;;;;;;;29.58;27.12;96759.38;5088253;28;20032;-75
2022/08/08 10:03:35;;;;;;;6.00;1.25;;;;;;;28.98;28.71;96756.19;5087967;28;20177;-74
2022/08/08 10:06:12;;;;;;;5.13;1.33;;;;;;;30.03;27.76;96755.13;5087363;28;20036;-75
2022/08/08 10:08:44;;;;;;;4.07;1.27;;;;;;;29.10;27.83;96755.97;5088146;28;20032;-76
2022/08/08 10:11:10;;;;;;;5.30;1.40;;;;;;;28.56;29.92;96750.81;5085321;28;20024;-76
2022/08/08 10:13:36;;;;;;;4.03;1.33;;;;;;;29.16;28.31;96760.34;5087392;28;20035;-76
2022/08/08 10:16:02;;;;;;;2.10;1.20;;;;;;;29.58;29.16;96746.66;5087857;28;20488;-75
2022/08/08 10:18:35;;;;;;;5.20;1.30;;;;;;;30.09;28.67;96754.03;5088288;28;20110;-76
2022/08/08 10:21:09;;;;;;;2.67;1.35;;;;;;;30.97;28.08;96747.44;5086329;28;20042;-76
2022/08/08 10:23:49;;;;;;;1.88;1.20;;;;;;;31.86;26.56;96734.75;5087015;28;20055;-76
2022/08/08 10:26:18;;;;;;;1.80;1.30;;;;;;;31.85;27.18;96740.44;5087572;28;20114;-76
2022/08/08 10:28:55;;;;;;;3.05;1.48;;;;;;;30.86;27.15;96746.66;5083755;28;20122;-76
2022/08/08 10:34:14;;;;;;;1.80;1.30;;;;;;;31.14;26.63;96737.03;5084771;28;20040;-74
2022/08/08 10:36:41;;;;;;;2.05;1.33;;;;;;;30.79;26.76;96745.31;5087479;28;20020;-77
2022/08/08 10:39:09;;;;;;;1.65;1.10;;;;;;;29.68;28.07;96743.19;5085968;28;20028;-76
2022/08/08 10:41:36;;;;;;;3.22;1.20;;;;;;;30.85;26.89;96746.91;5086012;28;20034;-76
2022/08/08 10:44:05;;;;;;;1.20;1.10;;;;;;;31.52;26.63;96731.97;5083462;28;20568;-76
2022/08/08 10:46:31;;;;;;;2.40;1.15;;;;;;;31.11;26.90;96737.59;5082662;28;20024;-76
2022/08/08 10:48:57;;;;;;;2.30;1.27;;;;;;;31.37;26.43;96741.03;5089668;28;20043;-76
2022/08/08 10:51:28;;;;;;;2.90;1.20;;;;;;;30.51;26.88;96744.78;5091201;28;20029;-76
2022/08/08 10:53:54;;;;;;;1.67;1.17;;;;;;;30.73;26.87;96741.78;5085588;28;20027;-76
2022/08/08 10:56:21;;;;;;;4.47;1.25;;;;;;;31.45;26.05;96737.69;5085350;28;20026;-76
2022/08/08 10:58:56;;;;;;;2.63;1.23;;;;;;;31.15;26.40;96730.50;5088534;28;20047;-77
2022/08/08 11:01:27;;;;;;;4.32;1.50;;;;;;;28.65;27.90;96735.72;5081293;28;20550;-76
2022/08/08 11:03:57;;;;;;;3.10;1.23;;;;;;;29.46;27.36;96737.13;5081384;28;20043;-77
2022/08/08 11:06:27;;;;;;;2.42;1.13;;;;;;;29.99;26.33;96737.78;5088091;28;20404;-76
2022/08/08 11:09:00;;;;;;;4.03;1.10;;;;;;;30.21;25.42;96742.94;5092452;28;20093;-76
2022/08/08 11:11:26;;;;;;;1.63;1.05;;;;;;;30.19;25.59;96740.50;5087448;28;20123;-76
2022/08/08 11:13:54;;;;;;;2.08;0.90;;;;;;;30.19;26.11;96737.78;5087529;28;20536;-76
2022/08/08 11:16:22;;;;;;;2.97;1.23;;;;;;;31.03;25.52;96729.22;5086504;28;20400;-76
2022/08/08 11:18:50;;;;;;;3.80;2.33;;;;;;;32.10;24.22;96720.44;5088777;28;20023;-76
2022/08/08 11:21:17;;;;;;;5.90;2.17;;;;;;;31.62;24.43;96725.66;5088550;28;20030;-76
2022/08/08 11:23:43;;;;;;;3.95;2.13;;;;;;;32.62;23.77;96716.94;5088817;28;20099;-76
2022/08/08 11:26:16;;;;;;;1.60;1.20;;;;;;;31.53;24.47;96722.72;5086240;28;20035;-76
2022/08/08 11:28:44;;;;;;;4.18;1.50;;;;;;;30.56;25.91;96723.09;5080514;28;20107;-76
2022/08/08 11:31:14;;;;;;;3.13;1.23;;;;;;;30.40;26.26;96722.28;5080741;28;20489;-76
2022/08/08 11:33:47;;;;;;;3.05;1.27;;;;;;;29.92;26.59;96731.81;5089168;28;20796;-76
2022/08/08 11:36:14;;;;;;;1.55;1.08;;;;;;;29.91;26.70;96724.75;5078443;28;21808;-76
2022/08/08 11:38:45;;;;;;;1.67;0.90;;;;;;;30.52;25.41;96716.59;5079828;28;20032;-76
2022/08/08 11:41:12;;;;;;;5.25;1.30;;;;;;;30.40;26.20;96716.06;5087876;28;20028;-76
2022/08/08 11:43:39;;;;;;;1.75;1.15;;;;;;;30.26;26.33;96724.75;5086464;28;20389;-77
2022/08/08 11:46:05;;;;;;;2.97;1.45;;;;;;;29.50;27.69;96714.63;5085404;28;20035;-76
2022/08/08 11:48:32;;;;;;;2.88;1.20;;;;;;;29.36;27.85;96725.19;5086903;28;20035;-76
2022/08/08 11:50:59;;;;;;;2.65;1.33;;;;;;;29.78;26.72;96721.50;5085746;28;20040;-76
2022/08/08 11:53:25;;;;;;;2.83;1.27;;;;;;;30.34;25.48;96712.53;5084154;28;20058;-76
2022/08/08 11:55:52;;;;;;;3.47;1.10;;;;;;;30.60;25.49;96712.50;5084422;28;20020;-76
2022/08/08 11:58:18;;;;;;;2.65;1.00;;;;;;;32.15;23.54;96702.13;5087584;28;20069;-76
2022/08/08 12:00:55;;;;;;;1.90;1.00;;;;;;;30.63;24.45;96710.03;5082816;28;20032;-76
2022/08/08 12:03:24;;;;;;;1.90;1.00;;;;;;;30.88;24.18;96708.34;5085788;28;20048;-75
2022/08/08 12:05:52;;;;;;;2.40;0.90;;;;;;;29.64;24.93;96720.38;5085117;28;20432;-75
2022/08/08 12:08:35;;;;;;;2.10;1.00;;;;;;;30.23;25.08;96703.59;5073826;28;20131;-75
2022/08/08 12:11:03;;;;;;;1.60;1.00;;;;;;;30.42;24.46;96705.75;5084430;28;20484;-75
2022/08/08 12:13:30;;;;;;;3.70;1.27;;;;;;;29.54;24.40;96701.38;5085852;28;20023;-76